Time;durP1;ratioP1;P1;durP2;ratioP2;P2;SDS_P1;SDS_P2;PMS_P1;PMS_P2;Temp;Humidity;BMP_temperature;BMP_pressure;BME280_temperature;BME280_humidity;BME280_pressure;Samples;Min_cycle;Max_cycle;Signal;HPM_P1;HPM_P2
2023/05/26 00:01:24;;;;;;;;;26.80;26.20;;;;;18.87;67.07;99421.81;5105756;28;8863;-86
2023/05/26 00:03:56;;;;;;;;;21.40;20.80;;;;;18.85;66.81;99425.53;5069287;28;8922;-86
2023/05/26 00:06:31;;;;;;;;;25.60;25.00;;;;;18.82;67.13;99417.69;5110616;28;8944;-88
2023/05/26 00:09:01;;;;;;;;;27.20;26.20;;;;;18.82;67.11;99418.59;5069932;28;8962;-86
2023/05/26 00:11:30;;;;;;;;;24.80;22.40;;;;;18.81;67.12;99410.69;5103070;28;8858;-85
2023/05/26 00:13:59;;;;;;;;;25.00;23.40;;;;;18.77;67.14;99412.63;5101902;28;8864;-85
2023/05/26 00:16:28;;;;;;;;;26.60;26.60;;;;;18.80;67.15;99411.63;5113514;28;8840;-85
2023/05/26 00:18:58;;;;;;;;;25.60;24.60;;;;;18.77;66.82;99414.44;5106750;28;8900;-87
2023/05/26 00:21:28;;;;;;;;;25.60;25.00;;;;;18.74;67.09;99416.34;5106794;28;8956;-86
2023/05/26 00:23:59;;;;;;;;;25.80;24.40;;;;;18.72;67.27;99415.56;5107640;28;8889;-86
2023/05/26 00:26:29;;;;;;;;;26.20;25.60;;;;;18.72;67.65;99409.34;5105905;28;8949;-89
2023/05/26 00:29:00;;;;;;;;;29.20;27.20;;;;;18.66;67.45;99413.22;5097852;28;8844;-83
2023/05/26 00:31:30;;;;;;;;;19.80;19.20;;;;;18.66;67.26;99413.22;5090087;28;9632;-84
2023/05/26 00:34:00;;;;;;;;;23.20;22.40;;;;;18.71;66.95;99411.16;5105733;28;8847;-87
2023/05/26 00:36:32;;;;;;;;;25.20;24.20;;;;;18.71;67.17;99399.66;5081452;28;8884;-85
2023/05/26 00:39:02;;;;;;;;;24.80;23.80;;;;;18.68;67.29;99400.69;5067627;28;8924;-85
2023/05/26 00:41:31;;;;;;;;;32.60;28.80;;;;;18.71;67.21;99400.53;5125304;28;8872;-85
2023/05/26 00:44:02;;;;;;;;;30.60;28.20;;;;;18.66;67.39;99404.38;5088250;28;8862;-82
2023/05/26 00:46:31;;;;;;;;;22.60;22.40;;;;;18.63;67.32;99409.88;5075409;28;8983;-84
2023/05/26 00:49:01;;;;;;;;;30.00;26.80;;;;;18.62;67.47;99413.50;5057423;28;8827;-84
2023/05/26 00:51:32;;;;;;;;;28.80;26.00;;;;;18.60;67.43;99410.91;5063149;28;8867;-83
2023/05/26 00:54:02;;;;;;;;;32.20;28.80;;;;;18.57;67.29;99413.75;5059840;28;8879;-85
2023/05/26 00:56:35;;;;;;;;;28.60;27.20;;;;;18.55;67.23;99405.88;5053704;28;8906;-85
2023/05/26 00:59:05;;;;;;;;;30.20;28.80;;;;;18.55;67.36;99403.22;5053162;28;8858;-86
2023/05/26 01:01:34;;;;;;;;;28.60;26.60;;;;;18.53;67.44;99407.75;5033559;28;8870;-84
2023/05/26 01:04:04;;;;;;;;;27.40;26.60;;;;;18.53;67.55;99402.44;5058386;28;9960;-84
2023/05/26 01:06:35;;;;;;;;;26.40;26.00;;;;;18.54;67.39;99404.13;5036652;28;8860;-87
2023/05/26 01:09:05;;;;;;;;;25.20;24.20;;;;;18.51;67.32;99398.97;5069312;28;8843;-84
2023/05/26 01:11:40;;;;;;;;;26.40;26.20;;;;;18.55;67.72;99397.00;5040696;28;8967;-83
2023/05/26 01:14:14;;;;;;;;;28.20;27.00;;;;;18.53;67.57;99396.22;5042605;28;8857;-85
2023/05/26 01:16:53;;;;;;;;;26.40;25.20;;;;;18.61;67.69;99395.78;5044980;28;8896;-85
2023/05/26 01:19:56;;;;;;;;;28.60;27.20;;;;;18.72;67.39;99394.25;5071987;28;8850;-86
2023/05/26 01:22:43;;;;;;;;;26.60;25.20;;;;;18.68;67.65;99403.34;5088777;28;8868;-83
2023/05/26 01:25:21;;;;;;;;;25.20;25.20;;;;;18.54;67.69;99398.81;5039474;28;8900;-86
2023/05/26 01:28:05;;;;;;;;;27.00;25.60;;;;;18.65;67.67;99405.34;5077786;28;8863;-83
2023/05/26 01:30:36;;;;;;;;;26.60;25.40;;;;;18.47;67.83;99408.09;5092293;28;8846;-84
2023/05/26 01:33:05;;;;;;;;;26.00;25.60;;;;;18.39;67.73;99401.50;5081118;28;8854;-83
2023/05/26 01:35:36;;;;;;;;;26.60;25.40;;;;;18.40;67.87;99388.06;5089950;28;8866;-84
2023/05/26 01:38:06;;;;;;;;;28.00;26.40;;;;;18.39;67.94;99389.03;5073418;28;8860;-83
2023/05/26 01:40:36;;;;;;;;;27.40;27.00;;;;;18.42;67.93;99388.00;5090127;28;8878;-83
2023/05/26 01:43:12;;;;;;;;;27.60;27.40;;;;;18.51;67.92;99382.16;5090441;28;8852;-85
2023/05/26 01:45:47;;;;;;;;;30.40;29.20;;;;;18.42;67.45;99375.56;5024358;28;8836;-84
2023/05/26 01:48:19;;;;;;;;;27.00;26.00;;;;;18.41;67.48;99381.81;5039493;28;8875;-85
2023/05/26 01:50:56;;;;;;;;;24.80;24.20;;;;;18.48;67.60;99380.53;5089998;28;8852;-84
2023/05/26 01:53:30;;;;;;;;;29.80;27.40;;;;;18.44;67.57;99379.00;5073878;28;8851;-83
2023/05/26 01:56:02;;;;;;;;;26.40;26.40;;;;;18.39;67.56;99374.88;5073279;28;8871;-83
2023/05/26 01:58:35;;;;;;;;;26.20;25.00;;;;;18.34;67.30;99367.97;5073411;28;8844;-82
2023/05/26 02:01:05;;;;;;;;;28.20;26.40;;;;;18.35;67.72;99375.03;5074250;28;8848;-83
2023/05/26 02:03:36;;;;;;;;;26.60;25.60;;;;;18.35;67.57;99376.84;5056289;28;8836;-85
2023/05/26 02:06:06;;;;;;;;;32.40;29.80;;;;;18.29;68.01;99372.72;5089185;28;8858;-83
2023/05/26 02:08:55;;;;;;;;;28.40;28.20;;;;;18.31;67.95;99372.66;5050840;28;8862;-86
2023/05/26 02:11:24;;;;;;;;;26.60;26.00;;;;;18.06;67.26;99373.13;5091667;28;8958;-82
2023/05/26 02:13:55;;;;;;;;;26.00;26.00;;;;;17.80;68.28;99369.19;5074582;28;8975;-86
2023/05/26 02:16:26;;;;;;;;;30.40;27.80;;;;;17.61;68.38;99378.16;5074293;28;8857;-84
2023/05/26 02:18:56;;;;;;;;;30.60;28.00;;;;;17.56;68.69;99372.22;5091664;28;8867;-83
2023/05/26 02:21:26;;;;;;;;;29.80;29.60;;;;;17.74;69.34;99378.34;5090978;28;9629;-81
2023/05/26 02:23:57;;;;;;;;;26.00;25.80;;;;;17.82;69.18;99377.97;5090878;28;8930;-86
2023/05/26 02:26:26;;;;;;;;;28.40;27.20;;;;;17.91;68.94;99380.97;5074152;28;8875;-84
2023/05/26 02:28:57;;;;;;;;;27.60;26.80;;;;;17.94;68.92;99385.25;5098300;28;8908;-84
2023/05/26 02:31:26;;;;;;;;;31.80;30.20;;;;;18.00;68.89;99382.25;5111155;28;8851;-81
2023/05/26 02:33:56;;;;;;;;;29.80;28.00;;;;;18.05;68.58;99382.06;5090586;28;8892;-84
2023/05/26 02:36:26;;;;;;;;;29.00;27.40;;;;;17.78;68.40;99394.06;5084892;28;8846;-85
2023/05/26 02:38:55;;;;;;;;;29.80;28.60;;;;;17.94;68.73;99386.13;5079420;28;8855;-83
2023/05/26 02:41:24;;;;;;;;;31.20;29.80;;;;;18.01;68.38;99386.66;5047056;28;8964;-83
2023/05/26 02:43:53;;;;;;;;;31.40;29.40;;;;;18.07;68.13;99374.84;5048068;28;8860;-83
2023/05/26 02:46:26;;;;;;;;;31.00;29.40;;;;;18.08;68.20;99365.91;4999599;28;9686;-82
2023/05/26 02:48:55;;;;;;;;;26.60;26.60;;;;;18.10;68.42;99362.25;5042212;28;8858;-84
2023/05/26 02:51:25;;;;;;;;;30.60;27.80;;;;;18.13;68.08;99369.19;5022823;28;8850;-84
2023/05/26 02:53:54;;;;;;;;;28.20;25.20;;;;;18.19;68.17;99375.97;5034488;28;9667;-82
2023/05/26 02:56:23;;;;;;;;;32.00;29.80;;;;;18.18;67.72;99384.91;5050526;28;8976;-83
2023/05/26 02:58:53;;;;;;;;;26.20;26.00;;;;;18.22;67.96;99381.13;5033492;28;8874;-85
2023/05/26 03:01:24;;;;;;;;;31.00;29.60;;;;;18.16;67.65;99379.69;5029727;28;8852;-83
2023/05/26 03:03:54;;;;;;;;;28.80;27.60;;;;;18.19;67.73;99382.16;5026911;28;9596;-84
2023/05/26 03:06:24;;;;;;;;;26.80;25.60;;;;;18.14;67.74;99381.56;5049940;28;8868;-84
2023/05/26 03:08:56;;;;;;;;;31.20;29.80;;;;;18.17;67.80;99389.34;5048246;28;8839;-83
2023/05/26 03:11:25;;;;;;;;;30.60;28.40;;;;;18.23;67.82;99390.81;5003383;28;8872;-84
2023/05/26 03:13:54;;;;;;;;;28.60;28.60;;;;;18.24;67.57;99384.56;5100344;28;8864;-83
2023/05/26 03:16:24;;;;;;;;;31.60;28.60;;;;;18.26;67.49;99390.66;5111960;28;8834;-84
2023/05/26 03:18:55;;;;;;;;;29.40;28.60;;;;;18.24;67.80;99393.41;5087325;28;8935;-83
2023/05/26 03:21:25;;;;;;;;;30.00;30.00;;;;;18.21;67.63;99388.25;5073547;28;9581;-83
2023/05/26 03:24:14;;;;;;;;;34.00;31.60;;;;;18.22;67.57;99389.13;5115616;27;8849;-86
2023/05/26 03:26:43;;;;;;;;;32.00;28.60;;;;;18.16;67.79;99395.63;5126536;27;8864;-87
2023/05/26 03:29:14;;;;;;;;;30.40;29.80;;;;;18.04;67.59;99405.13;5093246;27;8830;-83
2023/05/26 03:31:43;;;;;;;;;34.40;30.00;;;;;17.71;67.80;99410.44;5107284;27;8833;-84
2023/05/26 03:34:13;;;;;;;;;28.60;28.60;;;;;17.95;68.31;99400.28;5112195;27;8829;-82
2023/05/26 03:36:45;;;;;;;;;33.00;31.20;;;;;17.94;67.41;99404.72;5109062;27;8863;-83
2023/05/26 03:39:22;;;;;;;;;34.20;31.80;;;;;17.38;68.74;99398.81;5109342;27;8849;-83
2023/05/26 03:41:52;;;;;;;;;29.00;29.00;;;;;17.35;69.61;99409.59;5109290;27;8842;-83
2023/05/26 03:44:24;;;;;;;;;31.00;29.00;;;;;17.48;69.03;99395.69;5094462;27;8845;-85
2023/05/26 03:46:54;;;;;;;;;32.00;30.20;;;;;17.45;68.69;99409.13;5106748;27;8841;-83
2023/05/26 03:49:24;;;;;;;;;27.80;27.20;;;;;17.58;69.15;99397.78;5087432;28;8876;-82
2023/05/26 03:51:54;;;;;;;;;29.20;28.80;;;;;17.70;69.24;99392.75;5095319;27;8843;-85
2023/05/26 03:54:23;;;;;;;;;34.20;32.00;;;;;17.82;68.93;99388.59;5072794;27;8896;-83
2023/05/26 03:56:55;;;;;;;;;41.00;33.40;;;;;17.93;68.80;99400.38;5119372;27;8838;-83
2023/05/26 03:59:24;;;;;;;;;53.75;44.50;;;;;17.89;68.32;99396.16;5046272;28;8941;-83
2023/05/26 04:02:01;;;;;;;;;44.25;36.50;;;;;18.03;68.17;99398.09;5069700;28;8859;-82
2023/05/26 04:04:31;;;;;;;;;34.80;32.40;;;;;18.12;68.18;99405.59;5070612;28;8878;-82
2023/05/26 04:07:01;;;;;;;;;30.80;29.00;;;;;18.17;67.71;99397.34;5088497;28;8974;-82
2023/05/26 04:09:30;;;;;;;;;30.00;29.40;;;;;18.11;67.46;99400.34;5104382;28;8855;-81
2023/05/26 04:12:00;;;;;;;;;32.20;30.40;;;;;18.19;67.95;99407.91;5092473;28;8855;-83
2023/05/26 04:14:29;;;;;;;;;33.80;31.40;;;;;18.26;67.55;99391.50;5070002;28;8954;-82
2023/05/26 04:16:58;;;;;;;;;32.80;31.20;;;;;18.03;66.80;99399.88;5072322;28;9664;-84
2023/05/26 04:19:28;;;;;;;;;31.00;30.20;;;;;18.16;67.17;99408.94;5070841;28;8840;-84
2023/05/26 04:21:59;;;;;;;;;53.00;44.25;;;;;18.27;68.08;99408.31;5076942;28;8863;-82
2023/05/26 04:24:28;;;;;;;;;45.00;36.80;;;;;18.37;67.46;99400.72;5077201;28;8860;-81
2023/05/26 04:26:57;;;;;;;;;35.40;31.80;;;;;18.53;67.62;99394.44;5087556;28;8870;-83
2023/05/26 04:29:53;;;;;;;;;31.40;29.60;;;;;18.72;67.44;99390.72;5101275;28;8989;-81
2023/05/26 04:32:44;;;;;;;;;34.80;31.60;;;;;18.81;66.99;99390.22;5068837;28;8968;-81
2023/05/26 04:35:34;;;;;;;;;33.40;31.80;;;;;18.93;66.61;99380.66;5072460;28;8835;-84
2023/05/26 04:38:05;;;;;;;;;48.75;40.50;;;;;19.05;66.55;99392.41;5040059;28;8880;-84
2023/05/26 04:40:35;;;;;;;;;38.40;34.20;;;;;19.13;65.79;99393.66;5046372;28;8862;-85
2023/05/26 04:43:04;;;;;;;;;33.60;31.60;;;;;19.18;66.31;99400.53;5083692;28;8892;-86
2023/05/26 04:45:35;;;;;;;;;30.60;29.20;;;;;19.27;65.54;99410.66;5066451;28;8877;-84
2023/05/26 04:48:05;;;;;;;;;37.40;33.40;;;;;19.26;65.22;99400.94;5072751;28;8887;-84
2023/05/26 04:50:38;;;;;;;;;32.80;30.40;;;;;19.33;65.57;99402.31;5035682;28;8872;-83
2023/05/26 04:53:12;;;;;;;;;29.60;29.40;;;;;19.43;65.60;99406.13;5052599;28;8964;-83
2023/05/26 04:55:42;;;;;;;;;33.80;32.40;;;;;19.41;64.25;99410.69;5058133;28;8932;-84
2023/05/26 04:58:13;;;;;;;;;64.25;51.75;;;;;19.45;64.88;99422.88;5087745;28;8858;-83
2023/05/26 05:00:42;;;;;;;;;54.25;45.00;;;;;19.56;64.99;99418.75;5082149;28;9640;-86
2023/05/26 05:03:34;;;;;;;;;29.00;26.20;;;;;19.67;63.76;99421.63;5056534;28;8935;-82
2023/05/26 05:06:08;;;;;;;;;30.80;30.80;;;;;19.74;63.29;99422.94;5089594;28;8846;-85
2023/05/26 05:08:40;;;;;;;;;33.20;31.40;;;;;19.64;62.84;99417.31;5057915;28;8852;-84
2023/05/26 05:11:08;;;;;;;;;32.80;29.20;;;;;19.50;63.14;99426.13;5071425;28;8881;-82
2023/05/26 05:13:38;;;;;;;;;38.40;32.00;;;;;19.70;63.50;99421.44;5071997;28;10201;-82
2023/05/26 05:16:07;;;;;;;;;34.00;32.40;;;;;19.65;62.96;99423.50;5072401;28;9611;-84
2023/05/26 05:18:36;;;;;;;;;29.60;28.00;;;;;19.74;63.16;99428.28;5074888;28;8925;-86
2023/05/26 05:21:25;;;;;;;;;31.40;30.60;;;;;20.00;63.63;99421.34;5026673;28;9597;-84
2023/05/26 05:23:59;;;;;;;;;34.20;32.40;;;;;19.93;62.35;99419.16;5053330;28;8874;-82
2023/05/26 05:26:28;;;;;;;;;35.80;32.00;;;;;20.05;62.97;99426.41;5015311;28;9664;-77
2023/05/26 05:28:58;;;;;;;;;29.00;29.00;;;;;20.15;62.81;99419.53;4969159;28;8852;-77
2023/05/26 05:31:33;;;;;;;;;32.80;31.60;;;;;20.26;61.94;99413.56;4999073;28;8959;-75
2023/05/26 05:34:02;;;;;;;;;36.60;33.60;;;;;20.26;61.39;99414.41;5013150;28;8963;-79
2023/05/26 05:36:31;;;;;;;;;34.00;32.40;;;;;20.00;61.80;99421.34;5000342;28;8973;-79
2023/05/26 05:39:02;;;;;;;;;32.00;30.80;;;;;20.22;62.41;99428.03;4981928;28;8860;-76
2023/05/26 05:41:31;;;;;;;;;35.00;30.40;;;;;20.09;60.03;99427.94;4979954;28;8857;-77
2023/05/26 05:44:00;;;;;;;;;29.40;29.00;;;;;19.73;62.55;99431.94;5021251;28;8894;-75
2023/05/26 05:46:29;;;;;;;;;40.40;34.00;;;;;19.99;62.85;99418.78;5015378;28;8930;-77
2023/05/26 05:49:05;;;;;;;;;34.00;32.40;;;;;20.24;62.86;99419.00;5019814;28;8952;-76
2023/05/26 05:51:39;;;;;;;;;32.60;30.40;;;;;20.30;62.52;99425.75;4990143;28;8866;-77
2023/05/26 05:54:10;;;;;;;;;31.80;31.40;;;;;20.37;62.14;99408.41;5025483;28;8863;-74
2023/05/26 05:56:38;;;;;;;;;34.80;32.60;;;;;20.53;60.33;99418.09;5022842;28;8960;-75
2023/05/26 05:59:11;;;;;;;;;38.20;33.60;;;;;20.55;61.92;99411.69;5025246;28;8872;-76
2023/05/26 06:01:40;;;;;;;;;39.60;33.20;;;;;20.74;61.14;99414.00;4978873;28;8876;-75
2023/05/26 06:04:09;;;;;;;;;37.60;33.60;;;;;20.81;60.48;99419.81;5037548;28;8875;-76
2023/05/26 06:06:38;;;;;;;;;38.20;33.20;;;;;20.37;58.45;99428.88;4997022;28;8870;-75
2023/05/26 06:09:07;;;;;;;;;36.00;32.80;;;;;20.29;60.72;99432.03;5017428;28;8861;-75
2023/05/26 06:11:38;;;;;;;;;35.60;33.60;;;;;20.57;61.19;99435.63;5044775;28;8866;-78
2023/05/26 06:14:08;;;;;;;;;32.60;30.80;;;;;20.61;60.48;99429.97;5052995;28;8867;-75
2023/05/26 06:16:38;;;;;;;;;39.20;35.60;;;;;20.58;59.82;99438.19;5088218;28;8902;-74
2023/05/26 06:19:08;;;;;;;;;40.20;35.40;;;;;20.10;60.29;99442.97;5056927;28;8850;-75
2023/05/26 06:21:36;;;;;;;;;41.20;36.00;;;;;20.47;61.43;99440.69;5065169;28;8862;-75
2023/05/26 06:24:06;;;;;;;;;38.20;33.60;;;;;20.61;60.15;99429.97;5058226;28;8826;-76
2023/05/26 06:26:36;;;;;;;;;41.40;35.40;;;;;20.53;60.10;99426.94;5031926;28;8850;-75
2023/05/26 06:29:08;;;;;;;;;39.20;35.40;;;;;19.87;60.25;99436.41;5064343;28;8842;-76
2023/05/26 06:31:37;;;;;;;;;47.75;40.00;;;;;19.69;62.60;99446.41;5015897;28;8998;-77
2023/05/26 06:34:15;;;;;;;;;42.60;36.40;;;;;20.09;61.92;99435.94;5047924;28;8954;-77
2023/05/26 06:36:44;;;;;;;;;37.80;34.00;;;;;19.88;59.46;99440.81;5047001;28;9008;-77
2023/05/26 06:39:13;;;;;;;;;35.20;31.40;;;;;19.28;61.48;99447.03;5056833;28;8896;-77
2023/05/26 06:41:42;;;;;;;;;42.00;36.20;;;;;19.15;62.12;99452.19;5063490;28;8861;-75
2023/05/26 06:44:12;;;;;;;;;40.00;35.40;;;;;19.88;61.98;99449.66;5063854;28;9634;-76
2023/05/26 06:46:41;;;;;;;;;39.60;35.80;;;;;20.09;60.80;99441.28;5062318;28;8969;-75
2023/05/26 06:49:10;;;;;;;;;45.50;36.75;;;;;19.12;61.85;99449.69;5046889;28;8874;-77
2023/05/26 06:51:46;;;;;;;;;45.20;37.80;;;;;18.78;63.66;99443.66;5030914;28;9029;-76
2023/05/26 06:54:15;;;;;;;;;40.50;35.50;;;;;19.12;62.58;99444.38;5047390;28;8900;-76
2023/05/26 06:56:44;;;;;;;;;42.80;37.20;;;;;18.70;64.55;99448.53;5048976;28;8866;-77
2023/05/26 06:59:17;;;;;;;;;47.25;40.50;;;;;18.88;63.85;99450.19;5086203;28;8844;-76
2023/05/26 07:01:46;;;;;;;;;49.25;40.75;;;;;18.64;64.47;99460.38;5084762;28;8956;-74
2023/05/26 07:04:15;;;;;;;;;48.00;41.25;;;;;17.96;66.16;99460.50;5069519;28;8883;-76
2023/05/26 07:06:44;;;;;;;;;45.00;39.00;;;;;17.57;68.22;99458.97;5085533;28;8863;-76
2023/05/26 07:09:21;;;;;;;;;43.60;37.20;;;;;18.38;65.74;99460.97;5085918;28;8976;-77
2023/05/26 07:11:58;;;;;;;;;45.25;38.25;;;;;18.11;66.65;99458.88;5086787;28;8999;-79
2023/05/26 07:14:58;;;;;;;;;53.25;41.75;;;;;18.53;65.38;99462.78;5044738;28;8850;-76
2023/05/26 07:17:27;;;;;;;;;40.40;34.40;;;;;19.12;64.96;99458.59;5043728;28;8854;-78
2023/05/26 07:19:57;;;;;;;;;48.75;40.50;;;;;18.67;65.36;99459.38;5027669;28;8933;-80
2023/05/26 07:22:26;;;;;;;;;43.50;38.25;;;;;19.24;63.62;99464.16;4990786;28;8824;-77
2023/05/26 07:25:13;;;;;;;;;53.25;45.00;;;;;19.64;62.92;99464.47;5007769;28;8868;-74
2023/05/26 07:27:47;;;;;;;;;46.50;38.75;;;;;19.78;61.69;99464.47;5026193;28;8990;-79
2023/05/26 07:30:18;;;;;;;;;44.60;38.00;;;;;19.68;60.38;99477.53;5008311;28;8852;-76
2023/05/26 07:32:58;;;;;;;;;40.00;36.50;;;;;18.95;63.70;99480.00;5007356;28;8907;-77
2023/05/26 07:35:28;;;;;;;;;44.25;38.00;;;;;19.42;63.23;99473.69;5007646;28;8856;-76
2023/05/26 07:37:59;;;;;;;;;46.00;38.00;;;;;19.77;62.11;99473.44;5023881;28;8860;-77
2023/05/26 07:40:34;;;;;;;;;45.80;37.80;;;;;20.05;59.14;99475.28;5024357;28;9433;-78
2023/05/26 07:43:03;;;;;;;;;33.80;30.40;;;;;19.78;60.01;99469.81;5024396;28;9713;-74
2023/05/26 07:45:33;;;;;;;;;45.50;38.25;;;;;20.38;60.04;99471.50;5033824;28;8852;-76
2023/05/26 07:48:02;;;;;;;;;46.75;39.75;;;;;19.95;59.50;99474.13;5064699;28;8919;-78
2023/05/26 07:50:31;;;;;;;;;43.60;37.80;;;;;20.65;57.80;99470.69;5065371;28;9532;-74
2023/05/26 07:53:00;;;;;;;;;48.00;40.00;;;;;20.85;57.99;99469.41;5037385;28;8918;-71
2023/05/26 07:55:29;;;;;;;;;42.60;36.80;;;;;20.37;57.78;99471.59;5087452;28;8902;-75
2023/05/26 07:57:58;;;;;;;;;49.00;40.25;;;;;19.76;60.13;99477.06;5089434;28;8871;-74
2023/05/26 08:00:27;;;;;;;;;41.50;36.75;;;;;19.88;60.30;99478.16;5087995;28;8849;-72
2023/05/26 08:02:57;;;;;;;;;47.25;37.75;;;;;19.66;60.45;99483.91;5088644;28;8869;-73
2023/05/26 08:05:26;;;;;;;;;46.75;39.75;;;;;19.25;62.21;99482.72;5054786;28;8845;-70
2023/05/26 08:07:56;;;;;;;;;48.25;40.75;;;;;19.11;63.22;99475.50;5088654;28;8862;-69
2023/05/26 08:10:25;;;;;;;;;48.75;41.25;;;;;19.37;63.03;99478.47;5071137;28;8931;-71
2023/05/26 08:12:54;;;;;;;;;50.00;42.25;;;;;19.80;62.05;99475.94;5087941;28;8869;-74
2023/05/26 08:15:24;;;;;;;;;49.25;42.25;;;;;19.98;60.50;99473.94;5087477;28;8857;-71
2023/05/26 08:17:53;;;;;;;;;45.50;37.75;;;;;19.88;61.22;99465.66;5037334;28;8858;-72
2023/05/26 08:20:24;;;;;;;;;44.50;39.00;;;;;20.55;60.30;99462.41;5087952;28;8857;-71
2023/05/26 08:22:52;;;;;;;;;48.25;40.00;;;;;21.22;59.84;99457.19;5087295;28;8854;-72
2023/05/26 08:25:21;;;;;;;;;43.75;38.25;;;;;21.71;57.98;99461.06;5080812;28;8858;-72
2023/05/26 08:27:50;;;;;;;;;41.50;36.75;;;;;22.23;56.28;99464.56;5056890;28;8862;-69
2023/05/26 08:30:19;;;;;;;;;45.50;38.75;;;;;22.60;55.11;99473.53;5070344;28;8869;-70
2023/05/26 08:32:48;;;;;;;;;49.00;41.50;;;;;22.20;54.06;99470.13;5076042;28;9598;-71
2023/05/26 08:35:17;;;;;;;;;48.25;40.00;;;;;22.45;53.53;99480.00;5086460;28;8972;-71
2023/05/26 08:37:47;;;;;;;;;45.50;39.00;;;;;22.34;52.95;99477.25;5069347;28;8946;-72
2023/05/26 08:40:16;;;;;;;;;45.50;39.00;;;;;21.96;54.93;99480.78;5087366;28;8849;-71
2023/05/26 08:42:47;;;;;;;;;42.50;35.25;;;;;22.56;53.80;99476.53;5030055;28;8865;-70
2023/05/26 08:45:16;;;;;;;;;44.25;37.75;;;;;22.43;54.35;99465.88;5069002;28;8853;-69
2023/05/26 08:47:47;;;;;;;;;45.00;38.00;;;;;22.58;52.72;99479.97;5053060;28;8883;-71
2023/05/26 08:50:17;;;;;;;;;42.50;36.75;;;;;22.64;52.89;99478.66;5086149;28;8865;-69
2023/05/26 08:52:50;;;;;;;;;41.75;36.00;;;;;23.12;52.32;99471.56;5086332;28;8864;-70
2023/05/26 08:55:33;;;;;;;;;46.25;38.75;;;;;23.09;51.31;99477.16;5057620;28;8857;-69
2023/05/26 08:58:03;;;;;;;;;46.75;39.25;;;;;22.65;52.08;99475.03;5069385;28;8873;-71
2023/05/26 09:00:32;;;;;;;;;46.20;37.80;;;;;22.79;53.38;99470.38;5083452;28;8965;-72
2023/05/26 09:03:02;;;;;;;;;47.50;39.25;;;;;22.23;54.42;99480.66;5086025;28;8868;-70
2023/05/26 09:05:32;;;;;;;;;48.25;39.75;;;;;21.39;56.49;99472.09;5027216;28;8861;-71
2023/05/26 09:08:02;;;;;;;;;48.75;41.00;;;;;21.75;56.21;99472.38;5045575;28;8859;-70
2023/05/26 09:10:33;;;;;;;;;46.25;38.00;;;;;22.00;55.62;99477.75;5046885;28;8886;-69
2023/05/26 09:13:03;;;;;;;;;47.50;39.00;;;;;22.73;55.21;99468.16;5027640;28;8861;-70
2023/05/26 09:15:33;;;;;;;;;46.00;38.75;;;;;23.03;52.92;99469.56;5045395;28;8857;-70
2023/05/26 09:18:04;;;;;;;;;48.25;40.75;;;;;22.91;52.89;99470.47;5045897;28;8862;-70
2023/05/26 09:20:33;;;;;;;;;45.25;38.25;;;;;22.60;52.78;99472.69;5036487;28;8877;-70
2023/05/26 09:23:04;;;;;;;;;45.25;38.75;;;;;23.25;52.45;99470.66;5043287;28;8873;-70
2023/05/26 09:25:36;;;;;;;;;45.25;38.00;;;;;23.78;51.80;99471.06;5028786;28;9057;-71
2023/05/26 09:28:06;;;;;;;;;47.75;40.00;;;;;23.80;49.96;99460.22;5045086;28;8886;-69
2023/05/26 09:30:37;;;;;;;;;45.00;37.50;;;;;22.32;53.71;99471.16;5045756;28;8855;-71
2023/05/26 09:33:07;;;;;;;;;49.00;41.00;;;;;22.10;54.74;99467.25;4964049;28;8846;-70
2023/05/26 09:35:38;;;;;;;;;48.50;40.25;;;;;21.13;57.73;99456.97;5047090;28;8859;-70
2023/05/26 09:38:10;;;;;;;;;45.50;37.25;;;;;21.88;56.32;99451.88;5089114;28;8847;-69
2023/05/26 09:40:42;;;;;;;;;49.00;41.25;;;;;21.52;56.13;99452.53;5088673;28;8864;-70
2023/05/26 09:43:11;;;;;;;;;47.75;40.00;;;;;21.75;56.67;99448.31;5074009;28;8881;-71
2023/05/26 09:45:41;;;;;;;;;52.00;43.50;;;;;22.44;54.90;99442.63;5082744;28;8875;-70
2023/05/26 09:48:10;;;;;;;;;48.75;39.00;;;;;22.58;53.94;99448.69;5088236;28;8867;-71
2023/05/26 09:50:39;;;;;;;;;46.50;39.75;;;;;22.41;54.25;99444.56;5088034;28;11209;-70
2023/05/26 09:53:11;;;;;;;;;49.00;41.50;;;;;21.40;56.49;99438.19;5077156;28;8859;-70
2023/05/26 09:55:42;;;;;;;;;51.00;41.25;;;;;21.25;57.57;99445.44;5084658;28;8864;-69
2023/05/26 09:58:13;;;;;;;;;48.50;39.50;;;;;21.26;58.50;99444.47;5076977;28;8867;-70
2023/05/26 10:00:44;;;;;;;;;49.00;40.50;;;;;20.85;58.79;99440.03;5077008;28;8995;-70
2023/05/26 10:03:14;;;;;;;;;48.00;41.25;;;;;20.85;58.94;99438.22;5087940;28;8848;-70
2023/05/26 10:05:47;;;;;;;;;46.75;39.25;;;;;21.18;59.05;99414.72;5087967;28;8860;-70
2023/05/26 10:08:20;;;;;;;;;47.25;40.75;;;;;21.87;56.50;99426.06;5088208;28;8862;-71
2023/05/26 10:10:51;;;;;;;;;47.75;40.25;;;;;21.34;57.45;99418.06;5085870;28;8978;-71
2023/05/26 10:13:20;;;;;;;;;50.00;42.75;;;;;21.38;57.73;99408.03;5086280;28;8836;-72
2023/05/26 10:15:49;;;;;;;;;46.75;37.50;;;;;21.08;58.30;99416.31;5087607;28;8859;-70
2023/05/26 10:18:18;;;;;;;;;51.25;41.25;;;;;20.96;58.86;99423.34;5075873;28;8850;-71
2023/05/26 10:20:50;;;;;;;;;48.00;40.50;;;;;20.37;59.18;99418.19;5086615;28;9064;-70
2023/05/26 10:23:33;;;;;;;;;48.75;41.50;;;;;20.60;58.86;99414.91;5074597;28;8897;-69
2023/05/26 10:26:09;;;;;;;;;38.00;35.00;;;;;21.15;56.82;99410.44;5079855;28;8848;-69
2023/05/26 10:28:46;;;;;;;;;48.00;41.00;;;;;21.39;56.25;99407.06;5045973;28;8858;-67
2023/05/26 10:31:28;;;;;;;;;48.75;41.00;;;;;21.09;58.98;99408.19;5067268;28;8846;-70
2023/05/26 10:33:58;;;;;;;;;46.00;38.25;;;;;21.21;59.62;99410.03;5066963;28;8866;-67
2023/05/26 10:36:28;;;;;;;;;46.00;37.75;;;;;20.81;59.85;99403.78;5064668;28;8990;-71
2023/05/26 10:38:59;;;;;;;;;42.75;37.25;;;;;20.85;59.87;99408.81;5086396;28;9715;-68
2023/05/26 10:41:32;;;;;;;;;44.60;36.40;;;;;21.59;57.24;99408.38;5087200;28;8867;-68
2023/05/26 10:44:01;;;;;;;;;41.50;36.75;;;;;21.20;58.14;99416.34;5073585;28;8850;-70
2023/05/26 10:46:38;;;;;;;;;40.50;35.75;;;;;20.68;57.79;99409.94;5067088;28;8877;-69
2023/05/26 10:49:20;;;;;;;;;49.25;40.50;;;;;20.77;57.40;99415.63;5066742;28;8850;-67
2023/05/26 10:51:51;;;;;;;;;42.20;36.60;;;;;21.38;55.03;99400.84;5066822;28;8870;-69
2023/05/26 10:54:24;;;;;;;;;38.20;34.00;;;;;21.63;56.01;99413.44;5053384;28;8955;-70
2023/05/26 10:56:55;;;;;;;;;40.50;35.50;;;;;22.29;54.06;99399.06;5074013;28;8974;-68
2023/05/26 10:59:31;;;;;;;;;45.75;38.75;;;;;22.66;53.52;99391.88;5086582;28;8863;-69
2023/05/26 11:02:03;;;;;;;;;34.00;32.20;;;;;22.77;54.09;99391.06;5016549;28;8985;-69
2023/05/26 11:04:42;;;;;;;;;35.40;32.40;;;;;23.38;51.42;99380.22;5086872;28;8890;-68
2023/05/26 11:07:21;;;;;;;;;42.60;36.00;;;;;23.95;50.34;99387.38;5023350;28;8869;-70
2023/05/26 11:10:02;;;;;;;;;43.75;38.25;;;;;22.33;53.21;99392.50;5083095;28;8886;-68
2023/05/26 11:12:34;;;;;;;;;45.25;37.00;;;;;21.83;54.90;99381.75;5007691;28;8843;-69
2023/05/26 11:15:25;;;;;;;;;46.00;39.00;;;;;21.57;56.49;99387.06;5085490;28;8879;-69
2023/05/26 11:17:58;;;;;;;;;44.25;37.50;;;;;21.70;56.13;99384.44;5071410;28;8970;-68
2023/05/26 11:20:27;;;;;;;;;49.50;41.00;;;;;21.94;55.79;99376.50;5077754;28;8923;-71
2023/05/26 11:22:57;;;;;;;;;46.00;38.25;;;;;22.01;54.80;99375.09;5069903;28;8901;-69
2023/05/26 11:25:27;;;;;;;;;48.75;40.00;;;;;22.48;53.53;99369.94;5038413;28;9613;-71
2023/05/26 11:27:56;;;;;;;;;39.20;35.00;;;;;22.36;52.93;99373.53;5068638;28;8844;-77
2023/05/26 11:30:34;;;;;;;;;49.50;41.75;;;;;22.15;53.75;99370.56;5086631;28;8848;-75
2023/05/26 11:33:12;;;;;;;;;48.50;40.00;;;;;22.50;53.41;99364.50;5050759;28;9925;-76
2023/05/26 11:35:41;;;;;;;;;16.25;15.00;;;;;22.32;53.20;99362.19;5064307;28;8884;-75
2023/05/26 11:38:10;;;;;;;;;43.75;37.25;;;;;22.46;53.79;99353.16;5079486;28;8862;-75
2023/05/26 11:40:42;;;;;;;;;46.50;39.75;;;;;22.15;55.05;99347.31;5065622;28;8854;-76
2023/05/26 11:43:12;;;;;;;;;43.50;36.25;;;;;22.63;54.60;99338.50;5080669;28;8985;-78
2023/05/26 11:45:42;;;;;;;;;44.00;37.50;;;;;23.14;52.23;99338.22;5077806;28;8959;-75